createdAt,value
2023-04-15T00:00:22.922Z,8.83
2023-04-15T00:03:30.460Z,8.48
2023-04-15T00:06:38.386Z,7.92
2023-04-15T00:09:44.341Z,8.30
2023-04-15T00:12:51.066Z,11.12
2023-04-15T00:15:57.808Z,7.22
2023-04-15T00:19:04.829Z,9.13
2023-04-15T00:22:11.365Z,8.40
2023-04-15T00:25:18.380Z,10.20
2023-04-15T00:28:24.893Z,10.35
2023-04-15T00:31:30.796Z,7.28
2023-04-15T00:34:36.174Z,8.10
2023-04-15T00:37:45.942Z,8.93
2023-04-15T00:40:51.581Z,6.85
2023-04-15T00:43:57.719Z,11.73
2023-04-15T00:47:04.944Z,7.00
2023-04-15T00:50:11.424Z,8.88
2023-04-15T00:53:18.229Z,9.10
2023-04-15T00:56:24.738Z,9.13
2023-04-15T00:59:31.050Z,8.28
2023-04-15T01:02:37.850Z,8.93
2023-04-15T01:05:43.619Z,8.00
2023-04-15T01:08:50.408Z,10.38
2023-04-15T01:11:56.630Z,9.35
2023-04-15T01:15:04.821Z,8.68
2023-04-15T01:18:12.932Z,9.30
2023-04-15T01:21:20.151Z,9.83
2023-04-15T01:24:26.510Z,9.13
2023-04-15T01:27:33.592Z,9.93
2023-04-15T01:30:39.582Z,13.43
2023-04-15T01:33:47.392Z,6.80
2023-04-15T01:36:54.242Z,11.12
2023-04-15T01:40:00.324Z,9.03
2023-04-15T01:43:08.380Z,9.65
2023-04-15T01:46:14.434Z,7.92
2023-04-15T01:49:21.224Z,9.10
2023-04-15T01:52:27.065Z,8.43
2023-04-15T01:55:32.736Z,9.53
2023-04-15T01:58:39.022Z,10.25
2023-04-15T02:01:46.454Z,11.40
2023-04-15T02:04:51.985Z,9.55
2023-04-15T02:08:00.590Z,8.95
2023-04-15T02:11:09.436Z,12.13
2023-04-15T02:14:16.537Z,11.18
2023-04-15T02:17:22.990Z,11.97
2023-04-15T02:20:30.396Z,10.40
2023-04-15T02:23:36.731Z,8.95
2023-04-15T02:26:45.350Z,8.65
2023-04-15T02:29:53.785Z,9.23
2023-04-15T02:33:00.516Z,10.43
2023-04-15T02:36:08.646Z,11.75
2023-04-15T02:39:16.925Z,12.78
2023-04-15T02:42:22.898Z,8.65
2023-04-15T02:45:33.109Z,11.63
2023-04-15T02:48:40.007Z,11.12
2023-04-15T02:51:46.118Z,11.63
2023-04-15T02:54:52.394Z,12.63
2023-04-15T02:57:58.534Z,11.55
2023-04-15T03:01:04.986Z,11.08
2023-04-15T03:04:10.329Z,8.38
2023-04-15T03:07:17.791Z,18.15
2023-04-15T03:10:25.317Z,13.60
2023-04-15T03:13:31.628Z,12.07
2023-04-15T03:16:40.628Z,10.25
2023-04-15T03:19:49.080Z,8.90
2023-04-15T03:22:55.252Z,11.20
2023-04-15T03:26:06.537Z,12.28
2023-04-15T03:29:12.205Z,10.95
2023-04-15T03:32:22.105Z,9.30
2023-04-15T03:35:28.708Z,10.82
2023-04-15T03:38:36.873Z,11.73
2023-04-15T03:41:42.964Z,8.95
2023-04-15T03:44:50.800Z,10.38
2023-04-15T03:48:07.295Z,12.70
2023-04-15T03:51:07.701Z,9.90
2023-04-15T03:54:15.330Z,9.25
2023-04-15T03:57:22.042Z,8.95
2023-04-15T04:00:28.791Z,13.32
2023-04-15T04:03:36.226Z,10.35
2023-04-15T04:06:42.437Z,11.03
2023-04-15T04:09:49.211Z,13.58
2023-04-15T04:12:57.224Z,12.05
2023-04-15T04:16:03.682Z,13.13
2023-04-15T04:19:10.834Z,11.00
2023-04-15T04:22:17.651Z,13.18
2023-04-15T04:25:25.284Z,9.80
2023-04-15T04:28:31.568Z,10.43
2023-04-15T04:31:36.878Z,15.93
2023-04-15T04:34:44.178Z,11.00
2023-04-15T04:37:50.276Z,13.90
2023-04-15T04:40:56.044Z,11.97
2023-04-15T04:44:02.545Z,10.45
2023-04-15T04:47:07.951Z,14.87
2023-04-15T04:50:13.592Z,13.68
2023-04-15T04:53:19.837Z,9.70
2023-04-15T04:56:27.705Z,11.80
2023-04-15T04:59:34.269Z,15.20
2023-04-15T05:02:39.859Z,8.08
2023-04-15T05:05:48.672Z,15.58
2023-04-15T05:08:57.653Z,10.80
2023-04-15T05:12:03.473Z,10.85
2023-04-15T05:15:10.275Z,9.90
2023-04-15T05:18:15.662Z,14.93
2023-04-15T05:21:23.028Z,9.23
2023-04-15T05:24:29.915Z,10.32
2023-04-15T05:27:36.851Z,9.38
2023-04-15T05:30:42.480Z,10.75
2023-04-15T05:33:48.041Z,11.78
2023-04-15T05:36:54.322Z,12.98
2023-04-15T05:40:00.424Z,10.60
2023-04-15T05:43:06.484Z,8.23
2023-04-15T05:46:12.532Z,11.45
2023-04-15T05:49:18.728Z,11.40
2023-04-15T05:52:26.041Z,12.10
2023-04-15T05:55:32.121Z,10.13
2023-04-15T05:58:40.296Z,14.33
2023-04-15T06:01:51.361Z,8.68
2023-04-15T06:05:00.368Z,10.90
2023-04-15T06:08:07.536Z,10.72
2023-04-15T06:11:14.738Z,8.10
2023-04-15T06:14:22.869Z,10.10
2023-04-15T06:17:29.486Z,14.07
2023-04-15T06:20:35.956Z,9.55
2023-04-15T06:23:44.529Z,7.85
2023-04-15T06:26:51.319Z,9.45
2023-04-15T06:29:58.446Z,8.95
2023-04-15T06:33:05.533Z,8.58
2023-04-15T06:36:11.678Z,12.82
2023-04-15T06:39:17.852Z,9.43
2023-04-15T06:42:24.321Z,10.38
2023-04-15T06:45:32.408Z,7.95
2023-04-15T06:48:37.579Z,7.60
2023-04-15T06:51:42.419Z,9.38
2023-04-15T06:54:51.852Z,6.50
2023-04-15T06:57:58.240Z,9.35
2023-04-15T07:01:04.518Z,11.30
2023-04-15T07:04:10.933Z,9.73
2023-04-15T07:07:11.223Z,6.83
2023-04-15T07:09:58.365Z,7.05
2023-04-15T07:12:51.815Z,5.75
2023-04-15T07:15:46.206Z,6.12
2023-04-15T07:18:53.041Z,6.15
2023-04-15T07:21:59.575Z,6.80
2023-04-15T07:25:05.168Z,9.60
2023-04-15T07:28:10.228Z,7.37
2023-04-15T07:31:19.615Z,9.58
2023-04-15T07:34:28.645Z,6.45
2023-04-15T07:37:36.895Z,7.42
2023-04-15T07:40:42.031Z,8.20
2023-04-15T07:43:48.730Z,7.05
2023-04-15T07:46:56.930Z,6.83
2023-04-15T07:50:04.911Z,5.95
2023-04-15T07:53:10.880Z,6.35
2023-04-15T07:56:17.117Z,8.00
2023-04-15T07:59:24.357Z,6.35
2023-04-15T08:02:32.069Z,6.05
2023-04-15T08:05:38.243Z,5.95
2023-04-15T08:08:44.807Z,5.20
2023-04-15T08:11:51.637Z,5.80
2023-04-15T08:14:58.619Z,6.15
2023-04-15T08:18:08.489Z,5.80
2023-04-15T08:21:14.993Z,7.97
2023-04-15T08:24:21.168Z,8.73
2023-04-15T08:27:28.799Z,6.05
2023-04-15T08:30:34.700Z,6.90
2023-04-15T08:33:39.968Z,7.37
2023-04-15T08:36:47.245Z,10.75
2023-04-15T08:39:53.828Z,7.03
2023-04-15T08:43:01.541Z,6.87
2023-04-15T08:46:08.999Z,6.25
2023-04-15T08:49:20.193Z,5.25
2023-04-15T08:52:26.482Z,7.58
2023-04-15T08:55:32.964Z,10.28
2023-04-15T08:58:39.333Z,6.22
2023-04-15T09:01:45.036Z,8.53
2023-04-15T09:04:52.578Z,6.15
2023-04-15T09:07:59.563Z,7.95
2023-04-15T09:11:05.909Z,8.25
2023-04-15T09:14:13.619Z,5.72
2023-04-15T09:17:20.755Z,6.83
2023-04-15T09:20:28.273Z,6.05
2023-04-15T09:23:34.567Z,5.00
2023-04-15T09:26:51.163Z,6.50
2023-04-15T09:29:56.989Z,10.63
2023-04-15T09:33:20.206Z,10.60
2023-04-15T09:36:28.232Z,9.20
2023-04-15T09:39:34.665Z,7.22
2023-04-15T09:42:41.432Z,6.53
2023-04-15T09:45:47.440Z,8.55
2023-04-15T09:48:55.233Z,5.60
2023-04-15T09:52:05.660Z,5.67
2023-04-15T09:55:13.423Z,5.45
2023-04-15T09:58:19.684Z,5.58
2023-04-15T10:01:25.137Z,4.75
2023-04-15T10:04:31.335Z,9.63
2023-04-15T10:07:36.294Z,4.70
2023-04-15T10:10:41.368Z,4.70
2023-04-15T10:13:48.523Z,7.72
2023-04-15T10:16:56.513Z,9.15
2023-04-15T10:20:04.173Z,6.70
2023-04-15T10:23:12.845Z,6.08
2023-04-15T10:26:21.448Z,7.25
2023-04-15T10:29:27.821Z,11.25
2023-04-15T10:32:35.021Z,6.67
2023-04-15T10:35:41.174Z,7.20
2023-04-15T10:38:58.292Z,9.68
2023-04-15T10:42:18.548Z,12.55
2023-04-15T10:45:28.378Z,6.72
2023-04-15T10:48:35.386Z,12.58
2023-04-15T10:51:48.390Z,13.13
2023-04-15T10:54:54.758Z,12.58
2023-04-15T10:58:02.428Z,7.35
2023-04-15T11:01:10.576Z,10.45
2023-04-15T11:04:16.666Z,10.93
2023-04-15T11:07:25.665Z,9.85
2023-04-15T11:10:49.737Z,10.40
2023-04-15T11:14:03.841Z,8.88
2023-04-15T11:17:10.462Z,10.68
2023-04-15T11:20:16.741Z,9.80
2023-04-15T11:23:24.357Z,9.28
2023-04-15T11:26:30.655Z,10.20
2023-04-15T11:29:35.660Z,6.58
2023-04-15T11:32:42.162Z,7.28
2023-04-15T11:35:48.320Z,8.73
2023-04-15T11:38:59.598Z,6.85
2023-04-15T11:42:05.818Z,9.23
2023-04-15T11:45:31.180Z,5.60
2023-04-15T11:48:40.829Z,8.55
2023-04-15T11:51:48.931Z,8.10
2023-04-15T11:54:56.663Z,14.38
2023-04-15T11:58:01.971Z,8.98
2023-04-15T12:01:14.103Z,8.43
2023-04-15T12:04:32.397Z,8.33
2023-04-15T12:07:38.890Z,9.08
2023-04-15T12:10:47.037Z,7.65
2023-04-15T12:13:53.628Z,9.30
2023-04-15T12:17:04.272Z,10.63
2023-04-15T12:20:11.237Z,17.90
2023-04-15T12:23:22.806Z,5.35
2023-04-15T12:26:28.547Z,13.28
2023-04-15T12:29:34.271Z,5.05
2023-04-15T12:32:42.202Z,8.43
2023-04-15T12:35:48.164Z,8.75
2023-04-15T12:38:54.409Z,7.75
2023-04-15T12:41:59.628Z,6.42
2023-04-15T12:45:05.316Z,6.45
2023-04-15T12:48:10.576Z,7.65
2023-04-15T12:51:15.446Z,8.28
2023-04-15T12:54:21.202Z,11.88
2023-04-15T12:57:27.646Z,10.80
2023-04-15T13:00:32.940Z,5.67
2023-04-15T13:03:40.473Z,8.40
2023-04-15T13:06:46.436Z,6.15
2023-04-15T13:09:54.731Z,7.72
2023-04-15T13:13:02.077Z,9.80
2023-04-15T13:16:09.501Z,6.25
2023-04-15T13:19:15.358Z,6.67
2023-04-15T13:22:24.774Z,8.35
2023-04-15T13:25:31.263Z,8.80
2023-04-15T13:28:37.996Z,8.13
2023-04-15T13:31:43.042Z,7.80
2023-04-15T13:34:49.852Z,6.37
2023-04-15T13:37:55.527Z,5.95
2023-04-15T13:41:03.576Z,6.53
2023-04-15T13:44:09.318Z,5.58
2023-04-15T13:47:14.947Z,10.90
2023-04-15T13:50:23.050Z,5.40
2023-04-15T13:53:38.415Z,9.40
2023-04-15T13:56:35.958Z,6.30
2023-04-15T13:59:41.690Z,8.38
2023-04-15T14:02:47.107Z,7.17
2023-04-15T14:05:53.421Z,5.83
2023-04-15T14:08:58.924Z,7.75
2023-04-15T14:12:06.813Z,8.08
2023-04-15T14:15:13.368Z,7.47
2023-04-15T14:18:19.852Z,5.50
2023-04-15T14:21:27.632Z,8.58
2023-04-15T14:24:36.105Z,9.00
2023-04-15T14:27:41.760Z,8.05
2023-04-15T14:30:48.048Z,10.23
2023-04-15T14:33:53.014Z,12.58
2023-04-15T14:37:00.895Z,6.05
2023-04-15T14:40:07.576Z,6.12
2023-04-15T14:43:12.832Z,9.18
2023-04-15T14:46:18.835Z,6.37
2023-04-15T14:49:25.860Z,6.92
2023-04-15T14:52:32.876Z,9.43
2023-04-15T14:55:39.127Z,8.63
2023-04-15T14:58:47.248Z,6.47
2023-04-15T15:01:53.798Z,8.75
2023-04-15T15:05:00.476Z,7.47
2023-04-15T15:08:09.704Z,7.10
2023-04-15T15:11:18.304Z,6.97
2023-04-15T15:14:25.780Z,8.85
2023-04-15T15:17:30.737Z,9.68
2023-04-15T15:20:37.015Z,12.23
2023-04-15T15:23:41.947Z,9.35
2023-04-15T15:26:48.295Z,8.48
2023-04-15T15:29:55.024Z,8.85
2023-04-15T15:33:02.735Z,8.03
2023-04-15T15:36:09.402Z,8.80
2023-04-15T15:39:14.917Z,6.72
2023-04-15T15:42:22.670Z,7.40
2023-04-15T15:45:30.210Z,6.80
2023-04-15T15:48:37.923Z,9.58
2023-04-15T15:51:43.599Z,11.12
2023-04-15T15:54:49.998Z,10.82
2023-04-15T15:57:57.506Z,10.05
2023-04-15T16:01:04.058Z,8.75
2023-04-15T16:04:10.277Z,8.48
2023-04-15T16:07:16.837Z,9.58
2023-04-15T16:10:24.397Z,10.03
2023-04-15T16:13:30.838Z,10.00
2023-04-15T16:16:38.445Z,12.98
2023-04-15T16:19:58.181Z,8.20
2023-04-15T16:22:53.098Z,12.37
2023-04-15T16:26:00.613Z,12.75
2023-04-15T16:29:07.406Z,8.73
2023-04-15T16:32:13.747Z,9.10
2023-04-15T16:35:23.135Z,8.65
2023-04-15T16:38:29.729Z,9.40
2023-04-15T16:41:36.217Z,10.93
2023-04-15T16:44:41.312Z,12.23
2023-04-15T16:47:46.644Z,9.53
2023-04-15T16:50:52.163Z,8.20
2023-04-15T16:53:59.388Z,11.33
2023-04-15T16:57:06.051Z,9.30
2023-04-15T17:00:11.112Z,18.75
2023-04-15T17:03:17.657Z,15.48
2023-04-15T17:06:24.919Z,12.03
2023-04-15T17:09:32.124Z,16.20
2023-04-15T17:12:40.096Z,39.95
2023-04-15T17:15:48.354Z,15.55
2023-04-15T17:18:55.634Z,11.88
2023-04-15T17:22:01.474Z,13.13
2023-04-15T17:25:08.049Z,13.48
2023-04-15T17:28:14.290Z,10.55
2023-04-15T17:31:19.601Z,14.33
2023-04-15T17:34:25.044Z,12.65
2023-04-15T17:37:34.486Z,10.60
2023-04-15T17:40:40.095Z,15.53
2023-04-15T17:43:45.887Z,11.75
2023-04-15T17:46:51.486Z,11.48
2023-04-15T17:49:58.332Z,9.35
2023-04-15T17:53:08.983Z,8.23
2023-04-15T17:56:15.438Z,8.10
2023-04-15T17:59:23.251Z,10.50
2023-04-15T18:02:30.665Z,11.55
2023-04-15T18:05:37.815Z,11.78
2023-04-15T18:08:44.118Z,12.93
2023-04-15T18:11:52.358Z,9.20
2023-04-15T18:14:58.403Z,11.57
2023-04-15T18:18:04.270Z,12.13
2023-04-15T18:21:11.595Z,11.73
2023-04-15T18:24:19.228Z,10.18
2023-04-15T18:27:25.895Z,9.43
2023-04-15T18:30:31.247Z,9.00
2023-04-15T18:33:36.177Z,12.53
2023-04-15T18:36:41.329Z,9.13
2023-04-15T18:39:47.378Z,15.78
2023-04-15T18:42:53.989Z,13.62
2023-04-15T18:46:01.773Z,13.90
2023-04-15T18:49:08.076Z,15.05
2023-04-15T18:52:15.390Z,11.33
2023-04-15T18:55:21.507Z,10.25
2023-04-15T18:58:26.927Z,10.00
2023-04-15T19:01:33.164Z,10.82
2023-04-15T19:04:39.658Z,15.28
2023-04-15T19:07:46.343Z,14.75
2023-04-15T19:10:53.744Z,11.28
2023-04-15T19:14:01.952Z,11.05
2023-04-15T19:17:06.602Z,11.08
2023-04-15T19:20:12.882Z,16.48
2023-04-15T19:23:18.479Z,12.78
2023-04-15T19:26:24.165Z,14.33
2023-04-15T19:29:30.652Z,12.98
2023-04-15T19:32:30.063Z,11.08
2023-04-15T19:35:18.099Z,12.73
2023-04-15T19:38:12.785Z,16.42
2023-04-15T19:41:18.518Z,17.37
2023-04-15T19:44:24.427Z,17.40
2023-04-15T19:47:30.928Z,17.62
2023-04-15T19:50:39.034Z,15.13
2023-04-15T19:53:45.173Z,19.20
2023-04-15T19:56:50.550Z,15.30
2023-04-15T19:59:57.549Z,13.20
2023-04-15T20:03:04.395Z,17.90
2023-04-15T20:06:11.856Z,17.73
2023-04-15T20:09:18.354Z,12.53
2023-04-15T20:12:51.476Z,14.15
2023-04-15T20:15:37.744Z,14.33
2023-04-15T20:18:44.906Z,14.47
2023-04-15T20:21:52.812Z,16.12
2023-04-15T20:24:58.941Z,15.88
2023-04-15T20:28:05.783Z,15.53
2023-04-15T20:31:13.519Z,17.15
2023-04-15T20:34:20.832Z,17.50
2023-04-15T20:37:27.341Z,15.68
2023-04-15T20:40:35.141Z,21.48
2023-04-15T20:43:42.243Z,19.15
2023-04-15T20:46:48.725Z,19.45
2023-04-15T20:49:58.379Z,16.20
2023-04-15T20:53:03.469Z,16.52
2023-04-15T20:56:10.399Z,17.73
2023-04-15T20:59:15.969Z,15.38
2023-04-15T21:02:22.098Z,19.02
2023-04-15T21:05:29.853Z,17.45
2023-04-15T21:08:36.605Z,16.07
2023-04-15T21:11:53.194Z,14.75
2023-04-15T21:14:44.433Z,17.25
2023-04-15T21:17:49.550Z,17.35
2023-04-15T21:20:55.734Z,18.77
2023-04-15T21:24:05.015Z,16.65
2023-04-15T21:27:11.207Z,19.85
2023-04-15T21:30:16.802Z,22.73
2023-04-15T21:33:22.684Z,19.75
2023-04-15T21:36:29.331Z,16.32
2023-04-15T21:39:35.089Z,17.92
2023-04-15T21:42:42.105Z,19.77
2023-04-15T21:46:21.461Z,18.65
2023-04-15T21:48:57.539Z,17.55
2023-04-15T21:52:04.447Z,19.45
2023-04-15T21:55:10.608Z,19.20
2023-04-15T21:58:16.522Z,17.42
2023-04-15T22:01:23.881Z,19.75
2023-04-15T22:04:30.113Z,18.10
2023-04-15T22:07:38.076Z,16.48
2023-04-15T22:10:46.481Z,19.35
2023-04-15T22:13:51.518Z,22.40
2023-04-15T22:16:59.239Z,21.62
2023-04-15T22:20:05.236Z,17.45
2023-04-15T22:23:12.758Z,17.35
2023-04-15T22:26:18.856Z,18.20
2023-04-15T22:29:23.887Z,23.52
2023-04-15T22:32:30.351Z,21.07
2023-04-15T22:35:35.900Z,19.20
2023-04-15T22:38:42.263Z,21.90
2023-04-15T22:41:48.163Z,21.05
2023-04-15T22:44:53.269Z,19.37
2023-04-15T22:47:59.736Z,22.02
2023-04-15T22:51:06.384Z,18.35
2023-04-15T22:54:11.710Z,20.72
2023-04-15T22:57:18.321Z,18.02
2023-04-15T23:00:25.282Z,17.67
2023-04-15T23:03:31.185Z,22.00
2023-04-15T23:06:40.769Z,19.02
2023-04-15T23:09:49.260Z,19.73
2023-04-15T23:12:56.972Z,16.65
2023-04-15T23:16:03.791Z,22.25
2023-04-15T23:19:09.967Z,17.02
2023-04-15T23:22:17.066Z,17.10
2023-04-15T23:25:24.243Z,18.20
2023-04-15T23:28:29.929Z,20.25
2023-04-15T23:31:38.273Z,17.92
2023-04-15T23:34:43.517Z,19.73
2023-04-15T23:37:49.826Z,15.78
2023-04-15T23:40:56.874Z,21.85
2023-04-15T23:44:02.683Z,25.55
2023-04-15T23:47:10.118Z,16.62
2023-04-15T23:50:15.170Z,17.40
2023-04-15T23:53:21.737Z,20.05
2023-04-15T23:56:28.965Z,19.65
2023-04-15T23:59:34.654Z,15.85
